Time;durP1;ratioP1;P1;durP2;ratioP2;P2;SDS_P1;SDS_P2;PMS_P1;PMS_P2;Temp;Humidity;BMP_temperature;BMP_pressure;BME280_temperature;BME280_humidity;BME280_pressure;Samples;Min_cycle;Max_cycle;Signal;HPM_P1;HPM_P2
2024/01/08 00:02:37;;;;;;;18.10;9.20;;;;;;;-9.58;71.98;101409.86;111249;242;38943;-58
2024/01/08 00:05:18;;;;;;;18.30;10.10;;;;;;;-9.55;72.12;101416.06;111233;242;39674;-54
2024/01/08 00:07:57;;;;;;;23.20;9.30;;;;;;;-9.58;72.09;101418.40;111220;242;40958;-54
2024/01/08 00:10:32;;;;;;;24.00;12.30;;;;;;;-9.60;72.04;101415.49;111087;242;40585;-54
2024/01/08 00:13:09;;;;;;;20.10;10.20;;;;;;;-9.60;71.99;101420.55;111211;242;39806;-54
2024/01/08 00:15:50;;;;;;;23.80;11.10;;;;;;;-9.61;72.34;101418.48;111232;242;40651;-57
2024/01/08 00:18:30;;;;;;;23.40;10.60;;;;;;;-9.61;72.21;101415.85;111247;242;39383;-57
2024/01/08 00:21:09;;;;;;;24.60;9.80;;;;;;;-9.65;72.19;101421.89;111106;242;39551;-54
2024/01/08 00:23:45;;;;;;;23.20;10.00;;;;;;;-9.66;72.26;101424.88;111245;242;39689;-53
2024/01/08 00:26:21;;;;;;;21.20;10.40;;;;;;;-9.66;72.23;101425.22;111302;242;39648;-53
2024/01/08 00:28:58;;;;;;;19.40;9.60;;;;;;;-9.73;72.11;101424.17;111277;242;40261;-54
2024/01/08 00:31:37;;;;;;;24.80;9.90;;;;;;;-9.81;72.03;101420.02;111270;242;39905;-58
2024/01/08 00:34:12;;;;;;;23.10;10.70;;;;;;;-9.83;72.21;101416.23;111299;242;39433;-58
2024/01/08 00:36:44;;;;;;;;;;;;;;;-9.86;72.34;101419.27;111290;242;39735;-58
2024/01/08 00:39:20;;;;;;;22.10;9.30;;;;;;;-9.86;72.38;101414.72;111292;242;39698;-58
2024/01/08 00:41:56;;;;;;;30.90;11.80;;;;;;;-9.87;72.46;101418.24;111300;242;39978;-58
2024/01/08 00:44:31;;;;;;;23.20;11.40;;;;;;;-9.89;72.52;101422.67;111247;242;39221;-58
2024/01/08 00:47:08;;;;;;;22.90;9.50;;;;;;;-9.98;72.53;101428.44;111259;242;38986;-59
2024/01/08 00:49:44;;;;;;;23.80;11.10;;;;;;;-10.10;72.72;101428.02;111035;242;39835;-59
2024/01/08 00:52:19;;;;;;;25.20;11.60;;;;;;;-10.12;72.73;101432.44;111240;242;39353;-53
2024/01/08 00:55:15;;;;;;;41.50;16.40;;;;;;;-10.11;72.83;101432.23;111231;242;40307;-54
2024/01/08 00:57:59;;;;;;;25.30;11.60;;;;;;;-10.11;72.76;101437.11;111217;242;39855;-53
2024/01/08 01:00:34;;;;;;;25.50;11.50;;;;;;;-10.13;72.86;101437.02;111253;242;40237;-54
2024/01/08 01:03:09;;;;;;;21.90;10.90;;;;;;;-10.12;72.96;101438.02;111280;242;39556;-52
2024/01/08 01:05:49;;;;;;;19.30;9.30;;;;;;;-10.12;73.04;101447.23;111243;242;39584;-56
2024/01/08 01:08:25;;;;;;;20.60;10.60;;;;;;;-10.12;73.22;101448.11;111253;242;39695;-57
2024/01/08 01:11:03;;;;;;;24.10;10.70;;;;;;;-10.18;73.34;101449.48;111261;242;40263;-53
2024/01/08 01:13:41;;;;;;;18.60;10.00;;;;;;;-10.20;73.41;101455.10;111287;242;39448;-54
2024/01/08 01:16:17;;;;;;;22.30;10.60;;;;;;;-10.21;73.41;101460.67;111317;242;39130;-57
2024/01/08 01:18:53;;;;;;;20.80;10.40;;;;;;;-10.22;73.42;101457.76;111254;242;39291;-57
2024/01/08 01:21:31;;;;;;;24.80;10.60;;;;;;;-10.24;73.51;101459.36;111314;242;40522;-53
2024/01/08 01:24:17;;;;;;;;;;;;;;;-10.19;73.50;101452.30;111276;242;40777;-54
2024/01/08 01:26:57;;;;;;;23.70;9.90;;;;;;;-10.24;73.66;101451.52;111235;242;40100;-57
2024/01/08 01:29:36;;;;;;;21.50;10.40;;;;;;;-10.25;73.63;101452.23;111219;242;38998;-57
2024/01/08 01:32:10;;;;;;;21.90;10.50;;;;;;;-10.25;73.72;101458.16;111248;242;40099;-57
2024/01/08 01:34:44;;;;;;;19.90;9.80;;;;;;;-10.27;73.73;101463.07;111237;242;39480;-58
2024/01/08 01:37:18;;;;;;;17.50;9.50;;;;;;;-10.30;73.74;101461.58;111103;242;40952;-53
2024/01/08 01:39:56;;;;;;;22.80;10.60;;;;;;;-10.32;73.82;101469.10;111240;242;39564;-53
2024/01/08 01:42:32;;;;;;;26.80;11.20;;;;;;;-10.34;73.81;101473.33;111257;242;39532;-58
2024/01/08 01:45:11;;;;;;;24.10;10.20;;;;;;;-10.38;73.90;101477.59;111239;242;39766;-54
2024/01/08 01:47:47;;;;;;;24.30;10.90;;;;;;;-10.36;73.80;101472.66;111234;242;39611;-54
2024/01/08 01:50:26;;;;;;;23.50;11.00;;;;;;;-10.36;73.86;101475.98;111280;242;39817;-56
2024/01/08 01:53:01;;;;;;;24.30;11.80;;;;;;;-10.37;73.93;101481.41;111231;242;39379;-57
2024/01/08 01:55:36;;;;;;;22.00;10.50;;;;;;;-10.37;73.89;101478.77;111268;242;39165;-53
2024/01/08 01:58:14;;;;;;;23.30;11.50;;;;;;;-10.41;74.07;101481.14;111263;242;39914;-54
2024/01/08 02:00:50;;;;;;;23.40;10.90;;;;;;;-10.42;73.93;101489.68;111333;242;39496;-57
2024/01/08 02:03:27;;;;;;;23.00;10.10;;;;;;;-10.43;74.02;101495.63;111299;242;39840;-57
2024/01/08 02:06:04;;;;;;;23.20;10.50;;;;;;;-10.47;74.00;101493.45;111313;242;39875;-57
2024/01/08 02:08:51;;;;;;;21.50;10.90;;;;;;;-10.46;74.06;101494.45;111258;242;39335;-58
2024/01/08 02:11:31;;;;;;;23.40;10.20;;;;;;;-10.48;74.07;101489.28;111097;242;40424;-57
2024/01/08 02:14:05;;;;;;;22.90;10.50;;;;;;;-10.49;74.08;101489.65;111264;242;39897;-57
2024/01/08 02:16:43;;;;;;;19.40;8.90;;;;;;;-10.44;74.05;101496.70;111249;242;39150;-57
2024/01/08 02:19:17;;;;;;;21.30;9.70;;;;;;;-10.45;74.17;101499.67;111251;242;39502;-57
2024/01/08 02:21:53;;;;;;;21.40;10.10;;;;;;;-10.48;74.14;101499.91;111265;242;39983;-53
2024/01/08 02:24:30;;;;;;;21.40;10.60;;;;;;;-10.48;74.04;101504.59;111264;242;38915;-53
2024/01/08 02:27:05;;;;;;;22.00;10.30;;;;;;;-10.46;74.09;101511.36;111295;242;40343;-58
2024/01/08 02:29:39;;;;;;;21.40;9.90;;;;;;;-10.47;74.02;101513.81;111214;242;40869;-57
2024/01/08 02:32:17;;;;;;;18.50;8.80;;;;;;;-10.50;74.01;101519.42;111257;242;40628;-58
2024/01/08 02:34:56;;;;;;;20.30;10.10;;;;;;;-10.55;74.06;101527.38;111229;242;41643;-58
2024/01/08 02:37:37;;;;;;;23.60;9.80;;;;;;;-10.54;74.01;101530.48;111236;241;39302;-57
2024/01/08 02:40:14;;;;;;;23.40;10.10;;;;;;;-10.66;73.94;101538.02;111255;241;39519;-57
2024/01/08 02:42:49;;;;;;;19.80;9.20;;;;;;;-10.62;73.94;101533.42;111292;241;40095;-57
2024/01/08 02:45:26;;;;;;;26.00;10.30;;;;;;;-10.64;74.07;101531.38;111296;241;41076;-53
2024/01/08 02:48:00;;;;;;;18.90;10.00;;;;;;;-10.62;74.04;101532.21;111311;241;40061;-54
2024/01/08 02:50:38;;;;;;;20.10;10.10;;;;;;;-10.65;73.88;101540.09;111334;241;39088;-53
2024/01/08 02:53:13;;;;;;;22.60;10.10;;;;;;;-10.69;73.83;101543.14;111264;241;39659;-53
2024/01/08 02:55:49;;;;;;;20.10;10.30;;;;;;;-10.77;73.90;101544.67;111262;241;39631;-56
2024/01/08 02:58:25;;;;;;;20.50;11.30;;;;;;;-10.74;73.85;101547.05;111158;241;40000;-56
2024/01/08 03:01:02;;;;;;;17.90;9.10;;;;;;;-10.73;73.84;101553.65;111301;241;39917;-57
2024/01/08 03:03:39;;;;;;;22.30;9.80;;;;;;;-10.78;73.80;101554.61;111223;241;40343;-57
2024/01/08 03:06:26;;;;;;;21.20;9.60;;;;;;;-10.82;73.73;101563.88;111266;241;38960;-53
2024/01/08 03:09:06;;;;;;;19.80;10.00;;;;;;;-10.83;73.77;101566.86;111248;241;40691;-53
2024/01/08 03:11:48;;;;;;;23.00;9.80;;;;;;;-10.83;73.76;101565.48;111213;241;40295;-57
2024/01/08 03:14:29;;;;;;;21.00;9.70;;;;;;;-10.89;73.90;101570.80;111229;241;39262;-57
2024/01/08 03:17:06;;;;;;;21.70;9.30;;;;;;;-10.92;73.92;101576.59;111275;241;38931;-53
2024/01/08 03:19:41;;;;;;;18.40;9.10;;;;;;;-10.94;73.77;101577.49;111267;241;39574;-53
2024/01/08 03:22:16;;;;;;;21.30;9.50;;;;;;;-10.99;73.92;101574.29;111231;241;39379;-54
2024/01/08 03:24:51;;;;;;;22.50;9.80;;;;;;;-10.97;73.67;101579.80;111273;241;40691;-54
2024/01/08 03:27:27;;;;;;;18.80;9.60;;;;;;;-11.01;73.58;101580.75;111289;241;39259;-57
2024/01/08 03:30:06;;;;;;;19.00;9.70;;;;;;;-11.04;73.51;101581.66;111283;241;39207;-54
2024/01/08 03:32:42;;;;;;;23.10;9.90;;;;;;;-11.08;73.55;101590.07;111293;241;39748;-53
2024/01/08 03:35:22;;;;;;;19.10;9.40;;;;;;;-11.15;73.49;101591.92;111285;241;39298;-56
2024/01/08 03:37:58;;;;;;;19.60;10.10;;;;;;;-11.14;73.66;101589.14;111307;241;40083;-57
2024/01/08 03:40:41;;;;;;;20.20;11.00;;;;;;;-11.20;73.71;101596.20;111322;241;39970;-53
2024/01/08 03:43:19;;;;;;;19.30;10.30;;;;;;;-11.16;73.70;101592.98;111281;241;39739;-53
2024/01/08 03:45:59;;;;;;;20.50;10.50;;;;;;;-11.15;73.56;101592.27;111250;241;39389;-58
2024/01/08 03:48:37;;;;;;;20.70;10.10;;;;;;;-11.13;73.68;101596.60;111308;241;38893;-58
2024/01/08 03:51:18;;;;;;;19.80;10.00;;;;;;;-11.13;73.88;101600.94;111262;241;39282;-54
2024/01/08 03:53:55;;;;;;;22.30;10.60;;;;;;;-11.14;73.86;101606.86;111229;241;39767;-54
2024/01/08 03:56:32;;;;;;;18.80;9.70;;;;;;;-11.16;73.75;101606.38;111266;241;40319;-53
2024/01/08 03:59:09;;;;;;;20.20;10.00;;;;;;;-11.19;73.76;101607.48;111235;241;39920;-53
2024/01/08 04:01:50;;;;;;;22.20;10.50;;;;;;;-11.21;73.56;101615.66;111253;241;40020;-57
2024/01/08 04:04:27;;;;;;;21.10;9.60;;;;;;;-11.24;73.54;101617.27;111229;241;39517;-58
2024/01/08 04:07:05;;;;;;;19.40;10.10;;;;;;;-11.29;73.63;101616.14;111226;241;38896;-53
2024/01/08 04:09:39;;;;;;;22.30;10.80;;;;;;;-11.29;73.70;101615.45;111298;241;40241;-52
2024/01/08 04:12:19;;;;;;;22.20;10.60;;;;;;;-11.27;73.61;101620.80;111243;241;40536;-54
2024/01/08 04:14:55;;;;;;;17.40;9.90;;;;;;;-11.30;73.69;101621.54;111270;241;39806;-56
2024/01/08 04:17:33;;;;;;;20.30;9.60;;;;;;;-11.32;73.59;101623.31;111317;241;39682;-57
2024/01/08 04:20:10;;;;;;;21.90;10.20;;;;;;;-11.37;73.71;101620.08;111310;241;38853;-57
2024/01/08 04:22:50;;;;;;;18.40;10.00;;;;;;;-11.35;73.62;101623.19;111273;241;40042;-57
2024/01/08 04:25:28;;;;;;;19.30;10.00;;;;;;;-11.40;73.55;101631.76;111336;241;39212;-54
2024/01/08 04:28:04;;;;;;;17.30;9.80;;;;;;;-11.41;73.49;101643.60;111302;241;39328;-53
2024/01/08 04:30:41;;;;;;;19.50;9.90;;;;;;;-11.44;73.44;101643.99;111363;241;39198;-54
2024/01/08 04:33:23;;;;;;;23.20;10.90;;;;;;;-11.47;73.48;101649.60;111259;241;39671;-54
2024/01/08 04:36:02;;;;;;;20.70;10.70;;;;;;;-11.45;73.50;101649.23;111265;241;40572;-57
2024/01/08 04:38:37;;;;;;;21.40;11.00;;;;;;;-11.51;73.43;101652.07;111236;241;40056;-57
2024/01/08 04:41:11;;;;;;;20.40;10.50;;;;;;;-11.52;73.61;101657.65;111280;241;39317;-54
2024/01/08 04:43:47;;;;;;;21.40;10.00;;;;;;;-11.49;73.65;101656.73;111249;241;40996;-54
2024/01/08 04:46:23;;;;;;;22.00;10.00;;;;;;;-11.46;73.55;101656.01;111243;241;39676;-58
2024/01/08 04:49:00;;;;;;;18.30;9.10;;;;;;;-11.46;73.48;101659.65;111223;241;41560;-58
2024/01/08 04:51:35;;;;;;;19.00;10.00;;;;;;;-11.52;73.50;101661.82;111231;241;39406;-58
2024/01/08 04:54:16;;;;;;;19.70;9.80;;;;;;;-11.54;73.54;101663.77;111287;241;39210;-58
2024/01/08 04:56:52;;;;;;;19.00;10.10;;;;;;;-11.54;73.60;101665.31;111264;241;39444;-57
2024/01/08 04:59:26;;;;;;;17.60;9.40;;;;;;;-11.57;73.58;101666.40;111264;241;39309;-58
2024/01/08 05:02:04;;;;;;;21.30;10.80;;;;;;;-11.57;73.46;101670.05;111308;241;39953;-54
2024/01/08 05:04:38;;;;;;;26.50;11.90;;;;;;;-11.65;73.36;101668.09;111236;241;39323;-54
2024/01/08 05:07:14;;;;;;;20.00;11.40;;;;;;;-11.74;73.40;101678.46;111277;241;41326;-57
2024/01/08 05:09:49;;;;;;;23.20;11.00;;;;;;;-11.79;73.27;101682.70;111374;241;40170;-58
2024/01/08 05:12:26;;;;;;;32.80;13.10;;;;;;;-11.79;73.25;101687.21;111302;241;39279;-58
2024/01/08 05:15:00;;;;;;;26.40;14.10;;;;;;;-11.80;73.16;101689.31;111298;241;40788;-56
2024/01/08 05:17:35;;;;;;;;;;;;;;;-11.84;73.23;101691.63;111276;241;39021;-58
2024/01/08 05:20:12;;;;;;;18.30;9.00;;;;;;;-11.89;73.23;101692.71;111254;241;40633;-57
2024/01/08 05:22:47;;;;;;;22.20;11.20;;;;;;;-11.90;73.31;101701.23;111248;241;39713;-57
2024/01/08 05:25:23;;;;;;;18.50;9.00;;;;;;;-11.91;73.36;101711.33;111195;241;40552;-56
2024/01/08 05:28:02;;;;;;;24.90;11.10;;;;;;;-11.98;73.34;101710.53;111263;241;39525;-58
2024/01/08 05:30:39;;;;;;;20.60;11.10;;;;;;;-12.00;73.39;101716.80;111227;241;39593;-55
2024/01/08 05:33:15;;;;;;;21.30;9.60;;;;;;;-12.01;73.37;101716.30;111232;241;40216;-55
2024/01/08 05:35:51;;;;;;;23.00;9.60;;;;;;;-12.03;73.23;101717.00;111242;241;39451;-58
2024/01/08 05:38:28;;;;;;;24.60;10.70;;;;;;;-12.09;73.23;101716.55;111222;241;40430;-58
2024/01/08 05:41:03;;;;;;;19.50;9.40;;;;;;;-12.15;73.23;101722.85;111263;241;40534;-58
2024/01/08 05:43:40;;;;;;;20.60;10.10;;;;;;;-12.14;73.26;101725.98;111282;241;39236;-58
2024/01/08 05:46:17;;;;;;;19.60;9.00;;;;;;;-12.20;73.15;101726.73;111283;241;39763;-54
2024/01/08 05:48:52;;;;;;;17.30;8.60;;;;;;;-12.24;73.20;101730.40;111213;241;39383;-54
2024/01/08 05:51:33;;;;;;;21.60;9.20;;;;;;;-12.27;73.21;101734.77;111265;241;39163;-58
2024/01/08 05:54:09;;;;;;;17.30;8.80;;;;;;;-12.29;73.13;101732.55;111323;241;39013;-58
2024/01/08 05:56:49;;;;;;;19.60;9.70;;;;;;;-12.32;73.19;101738.13;110850;241;515082;-54
2024/01/08 05:59:26;;;;;;;17.20;9.20;;;;;;;-12.32;73.21;101738.81;111222;241;39542;-54
2024/01/08 06:02:00;;;;;;;20.20;9.70;;;;;;;-12.37;73.31;101737.11;111295;241;39453;-57
2024/01/08 06:04:34;;;;;;;20.10;10.20;;;;;;;-12.38;73.25;101738.52;111280;241;40104;-57
2024/01/08 06:07:09;;;;;;;23.70;11.00;;;;;;;-12.40;73.03;101738.54;111290;241;39062;-57
2024/01/08 06:09:45;;;;;;;20.50;10.20;;;;;;;-12.44;73.05;101739.95;111263;241;39579;-57
2024/01/08 06:12:20;;;;;;;20.30;9.70;;;;;;;-12.49;73.10;101744.33;111235;241;38857;-53
2024/01/08 06:14:56;;;;;;;18.60;9.50;;;;;;;-12.54;73.19;101751.48;111211;241;39320;-52
2024/01/08 06:17:32;;;;;;;20.70;11.40;;;;;;;-12.55;73.08;101757.56;111231;241;39595;-53
2024/01/08 06:20:09;;;;;;;21.80;9.80;;;;;;;-12.59;73.06;101755.52;111247;241;39766;-54
2024/01/08 06:22:45;;;;;;;25.40;10.70;;;;;;;-12.64;73.23;101755.39;111244;241;38919;-54
2024/01/08 06:25:27;;;;;;;20.50;10.20;;;;;;;-12.64;73.23;101757.63;111267;241;39139;-58
2024/01/08 06:28:01;;;;;;;18.60;8.60;;;;;;;-12.64;73.22;101759.02;111239;241;39950;-58
2024/01/08 06:30:38;;;;;;;21.60;10.00;;;;;;;-12.71;73.24;101766.35;111295;241;39940;-54
2024/01/08 06:33:15;;;;;;;32.50;12.50;;;;;;;-12.71;73.32;101770.17;111257;241;39229;-54
2024/01/08 06:35:54;;;;;;;19.80;9.40;;;;;;;-12.69;73.23;101773.62;111291;241;39558;-59
2024/01/08 06:38:33;;;;;;;24.10;11.00;;;;;;;-12.68;73.24;101773.44;111282;241;40682;-59
2024/01/08 06:41:14;;;;;;;23.60;9.90;;;;;;;-12.67;73.34;101771.35;111277;241;39480;-58
2024/01/08 06:43:53;;;;;;;18.20;8.80;;;;;;;-12.65;73.33;101775.67;111258;241;39700;-59
2024/01/08 06:46:32;;;;;;;27.30;9.70;;;;;;;-12.66;73.29;101771.88;111255;241;39869;-55
2024/01/08 06:49:09;;;;;;;18.60;9.90;;;;;;;-12.64;73.34;101778.96;111296;241;39497;-55
2024/01/08 06:51:47;;;;;;;22.40;10.90;;;;;;;-12.65;73.28;101783.14;111274;241;39696;-59
2024/01/08 06:54:26;;;;;;;20.50;10.10;;;;;;;-12.71;73.36;101786.47;111226;241;38921;-59
2024/01/08 06:57:00;;;;;;;24.50;10.70;;;;;;;-12.66;73.36;101785.40;111261;241;39319;-58
2024/01/08 06:59:34;;;;;;;;;;;;;;;-12.66;73.35;101789.38;111278;241;39340;-58
2024/01/08 07:02:15;;;;;;;24.60;10.90;;;;;;;-12.59;73.39;101791.41;111227;241;39232;-58
2024/01/08 07:04:56;;;;;;;23.40;10.90;;;;;;;-12.51;73.47;101788.42;111261;241;39779;-58
2024/01/08 07:07:37;;;;;;;19.60;9.60;;;;;;;-12.45;73.42;101786.81;111254;241;39619;-57
2024/01/08 07:10:18;;;;;;;23.20;10.70;;;;;;;-12.46;73.30;101794.27;111264;241;39862;-57
2024/01/08 07:12:55;;;;;;;20.20;10.30;;;;;;;-12.39;73.37;101802.04;111238;241;39135;-57
2024/01/08 07:15:46;;;;;;;20.10;9.60;;;;;;;-12.28;73.39;101800.91;111258;241;39751;-53
2024/01/08 07:18:20;;;;;;;19.60;9.70;;;;;;;-12.24;73.30;101808.16;111273;241;39664;-53
2024/01/08 07:20:59;;;;;;;22.00;10.50;;;;;;;-12.18;73.26;101814.35;111288;241;39807;-56
2024/01/08 07:23:37;;;;;;;18.60;9.80;;;;;;;-12.10;73.16;101812.21;111252;241;39427;-57
2024/01/08 07:26:16;;;;;;;23.00;10.80;;;;;;;-12.05;72.96;101819.63;111260;241;40414;-58
2024/01/08 07:28:52;;;;;;;24.80;11.10;;;;;;;-11.94;72.85;101821.45;111181;241;39319;-58
2024/01/08 07:31:30;;;;;;;22.30;11.40;;;;;;;-11.88;72.81;101819.30;111308;241;40680;-53
2024/01/08 07:34:06;;;;;;;23.90;10.90;;;;;;;-11.79;72.83;101822.19;111249;241;40774;-54
2024/01/08 07:36:43;;;;;;;22.10;10.80;;;;;;;-11.71;72.79;101822.27;111253;241;40786;-53
2024/01/08 07:39:22;;;;;;;22.50;10.50;;;;;;;-11.55;72.79;101825.90;111242;241;39309;-54
2024/01/08 07:41:59;;;;;;;17.30;9.60;;;;;;;-11.39;72.37;101829.52;111244;241;40266;-54
2024/01/08 07:44:41;;;;;;;24.60;10.60;;;;;;;-11.25;72.29;101838.23;111251;241;39774;-54
2024/01/08 07:47:16;;;;;;;20.80;9.70;;;;;;;-10.91;72.48;101846.17;111288;241;40373;-57
2024/01/08 07:50:00;;;;;;;17.60;10.30;;;;;;;-10.76;72.15;101853.12;111238;241;40619;-57
2024/01/08 07:52:38;;;;;;;22.10;10.30;;;;;;;-10.52;71.79;101854.70;111277;241;40222;-58
2024/01/08 07:55:13;;;;;;;20.30;9.90;;;;;;;-10.36;71.78;101855.34;111235;241;40501;-57
2024/01/08 07:57:50;;;;;;;21.50;10.60;;;;;;;-10.14;71.63;101855.34;111257;241;38979;-57
2024/01/08 08:00:29;;;;;;;18.80;10.40;;;;;;;-9.82;71.50;101856.19;111249;241;40276;-54
2024/01/08 08:03:06;;;;;;;19.90;11.10;;;;;;;-9.49;70.74;101851.92;111249;241;39787;-53
2024/01/08 08:05:40;;;;;;;19.80;10.60;;;;;;;-9.20;70.43;101854.88;111275;241;39597;-57
2024/01/08 08:08:19;;;;;;;19.20;10.30;;;;;;;-9.08;69.34;101862.67;111266;241;41271;-58
2024/01/08 08:10:55;;;;;;;19.70;10.00;;;;;;;-9.25;69.29;101869.80;111316;241;40910;-53
2024/01/08 08:13:34;;;;;;;20.30;10.90;;;;;;;-9.11;69.04;101879.64;111320;241;38966;-54
2024/01/08 08:16:10;;;;;;;23.80;11.40;;;;;;;-9.00;68.81;101885.73;111299;241;40310;-55
2024/01/08 08:18:46;;;;;;;22.70;10.70;;;;;;;-9.15;68.76;101892.46;111268;241;39221;-54
2024/01/08 08:21:22;;;;;;;19.50;10.60;;;;;;;-9.33;68.67;101889.31;111282;241;39104;-53
2024/01/08 08:23:58;;;;;;;20.10;10.50;;;;;;;-9.43;68.62;101899.94;111271;241;40834;-53
2024/01/08 08:26:35;;;;;;;19.10;9.60;;;;;;;-9.53;68.35;101904.15;111258;241;39290;-57
2024/01/08 08:29:10;;;;;;;18.00;10.20;;;;;;;-9.64;68.43;101904.52;111274;241;39575;-57
2024/01/08 08:31:44;;;;;;;18.30;10.30;;;;;;;-9.65;68.48;101904.87;111276;241;39231;-57
2024/01/08 08:34:17;;;;;;;;;;;;;;;-9.50;68.71;101912.97;111297;241;41272;-57
2024/01/08 08:36:53;;;;;;;20.30;10.30;;;;;;;-9.39;68.39;101915.06;111232;241;40227;-56
2024/01/08 08:39:28;;;;;;;18.30;10.10;;;;;;;-9.54;68.26;101914.96;111263;241;41046;-55
2024/01/08 08:42:03;;;;;;;19.40;10.10;;;;;;;-9.38;68.06;101919.56;111267;241;38895;-53
2024/01/08 08:44:37;;;;;;;19.70;10.70;;;;;;;-9.35;67.68;101921.09;111245;241;39630;-53
2024/01/08 08:47:13;;;;;;;20.90;10.50;;;;;;;-9.33;67.52;101924.38;111216;241;39979;-54
2024/01/08 08:49:51;;;;;;;20.10;10.60;;;;;;;-9.10;67.70;101925.16;111230;241;40459;-55
2024/01/08 08:52:37;;;;;;;17.80;10.10;;;;;;;-8.95;67.69;101932.21;111260;241;39751;-55
2024/01/08 08:55:17;;;;;;;21.20;10.40;;;;;;;-9.24;66.75;101935.54;111297;241;41173;-57
2024/01/08 08:57:56;;;;;;;21.40;10.00;;;;;;;-9.39;67.27;101938.42;111227;241;39203;-58
2024/01/08 09:00:35;;;;;;;19.10;9.90;;;;;;;-9.42;67.25;101944.23;111301;241;39783;-58
2024/01/08 09:03:12;;;;;;;20.20;10.40;;;;;;;-9.40;67.33;101947.17;111291;241;39121;-59
2024/01/08 09:05:46;;;;;;;21.50;9.70;;;;;;;-9.30;67.73;101955.18;111309;241;40132;-55
2024/01/08 09:08:27;;;;;;;20.00;10.30;;;;;;;-9.08;67.55;101958.98;111247;241;39862;-54
2024/01/08 09:11:06;;;;;;;19.50;10.70;;;;;;;-8.75;67.45;101958.70;111275;241;40843;-58
2024/01/08 09:13:42;;;;;;;22.90;10.80;;;;;;;-8.47;67.55;101964.76;111248;241;40169;-58
2024/01/08 09:16:19;;;;;;;17.80;10.00;;;;;;;-8.30;67.29;101964.78;111261;241;40735;-54
2024/01/08 09:18:59;;;;;;;18.80;10.30;;;;;;;-8.12;67.02;101962.59;111226;241;39389;-54
2024/01/08 09:21:34;;;;;;;19.40;10.40;;;;;;;-8.03;66.48;101963.79;111258;241;40042;-54
2024/01/08 09:24:09;;;;;;;17.10;10.10;;;;;;;-7.77;66.43;101969.33;111247;241;39401;-54
2024/01/08 09:26:45;;;;;;;18.70;10.80;;;;;;;-7.62;66.12;101969.83;111257;241;39299;-55
2024/01/08 09:29:19;;;;;;;20.20;11.10;;;;;;;-7.61;65.92;101972.79;111273;241;40470;-53
2024/01/08 09:31:55;;;;;;;23.80;11.50;;;;;;;-7.59;65.65;101971.68;111227;241;39651;-54
2024/01/08 09:34:32;;;;;;;20.50;11.30;;;;;;;-7.44;65.41;101973.24;111264;241;40179;-54
2024/01/08 09:37:06;;;;;;;19.20;11.10;;;;;;;-6.87;65.43;101971.40;111287;241;38929;-54
2024/01/08 09:39:42;;;;;;;20.80;11.70;;;;;;;-6.32;65.29;101978.63;111298;241;39861;-54
2024/01/08 09:42:24;;;;;;;18.20;11.00;;;;;;;-5.82;64.06;101985.36;111289;241;40349;-54
2024/01/08 09:45:11;;;;;;;19.90;12.30;;;;;;;-5.72;63.92;101985.38;111296;241;40041;-53
2024/01/08 09:47:52;;;;;;;19.90;11.50;;;;;;;-5.30;64.02;101975.06;111262;241;39622;-55
2024/01/08 09:50:28;;;;;;;20.20;11.30;;;;;;;-5.12;63.39;101980.24;111274;241;39902;-53
2024/01/08 09:53:03;;;;;;;19.00;11.70;;;;;;;-4.84;63.23;101975.27;111254;241;40545;-53
2024/01/08 09:55:42;;;;;;;19.90;11.70;;;;;;;-4.49;62.59;101975.38;111269;241;39362;-55
2024/01/08 09:58:19;;;;;;;18.20;11.60;;;;;;;-4.55;61.74;101981.77;111197;241;42702;-55
2024/01/08 10:00:56;;;;;;;20.80;13.60;;;;;;;-4.84;61.37;101974.20;111285;241;40038;-58
2024/01/08 10:03:33;;;;;;;17.90;12.10;;;;;;;-4.79;61.60;101974.53;111226;241;39452;-59
2024/01/08 10:06:14;;;;;;;21.00;13.10;;;;;;;-4.45;61.71;101965.05;111267;241;39471;-59
2024/01/08 10:08:55;;;;;;;19.40;13.00;;;;;;;-4.36;60.61;101961.02;111236;241;39864;-58
2024/01/08 10:11:35;;;;;;;18.70;12.50;;;;;;;-4.15;59.43;101961.30;111232;241;40138;-55
2024/01/08 10:14:11;;;;;;;21.40;13.00;;;;;;;-4.05;59.97;101956.14;111232;241;39777;-55
2024/01/08 10:16:48;;;;;;;19.90;12.70;;;;;;;-3.84;59.27;101952.85;111226;241;40181;-55
2024/01/08 10:19:23;;;;;;;20.00;12.20;;;;;;;-3.64;59.71;101955.77;111252;241;40209;-55
2024/01/08 10:22:13;;;;;;;17.80;12.00;;;;;;;-3.47;59.23;101965.98;111256;241;39264;-56
2024/01/08 10:24:53;;;;;;;17.10;11.60;;;;;;;-3.43;58.47;101970.59;111201;241;40150;-56
2024/01/08 10:27:31;;;;;;;17.80;11.90;;;;;;;-3.50;58.18;101961.19;111242;241;39742;-54
2024/01/08 10:30:11;;;;;;;17.70;11.70;;;;;;;-4.06;58.19;101966.90;111286;241;40193;-54
2024/01/08 10:32:48;;;;;;;18.10;11.20;;;;;;;-4.79;57.52;101974.00;111304;241;39730;-54
2024/01/08 10:35:27;;;;;;;18.30;11.80;;;;;;;-5.67;57.62;101982.05;111243;241;41297;-58
2024/01/08 10:38:11;;;;;;;21.20;11.60;;;;;;;-6.24;58.32;101992.25;111237;241;39265;-58
2024/01/08 10:40:56;;;;;;;23.20;13.80;;;;;;;-6.75;58.57;101990.35;111282;241;39712;-53
2024/01/08 10:43:33;;;;;;;20.50;12.10;;;;;;;-6.97;58.61;101990.05;111303;241;39839;-51
2024/01/08 10:46:10;;;;;;;18.80;11.20;;;;;;;-7.22;58.99;101991.94;111324;241;39902;-53
2024/01/08 10:48:50;;;;;;;18.20;10.70;;;;;;;-7.37;59.38;101991.78;111260;241;40611;-54
2024/01/08 10:51:25;;;;;;;23.00;10.90;;;;;;;-7.72;59.80;101990.72;111288;241;39069;-54
2024/01/08 10:54:10;;;;;;;19.60;11.40;;;;;;;-7.98;60.13;101988.30;111248;241;39174;-54
2024/01/08 10:56:49;;;;;;;22.90;10.50;;;;;;;-8.23;60.43;101989.39;111249;241;39260;-58
2024/01/08 10:59:27;;;;;;;22.10;10.90;;;;;;;-8.37;60.78;101989.36;111272;241;39510;-57
2024/01/08 11:02:01;;;;;;;22.80;10.90;;;;;;;-8.45;61.30;101987.61;111246;241;39151;-59
2024/01/08 11:04:35;;;;;;;;;;;;;;;-8.51;61.42;101991.39;111275;241;38219;-59
2024/01/08 11:07:13;;;;;;;21.80;11.00;;;;;;;-8.53;61.84;101992.84;111266;241;39692;-55
2024/01/08 11:10:03;;;;;;;19.00;10.30;;;;;;;-8.54;61.95;101998.46;111283;241;39247;-55
2024/01/08 11:12:39;;;;;;;21.50;11.10;;;;;;;-8.60;62.01;101996.12;111236;241;39278;-55
2024/01/08 11:15:18;;;;;;;18.20;11.00;;;;;;;-8.56;62.39;101997.60;111229;241;39723;-57
2024/01/08 11:17:58;;;;;;;17.70;9.80;;;;;;;-8.50;62.37;101998.00;111312;241;38971;-56
2024/01/08 11:20:49;;;;;;;18.90;10.00;;;;;;;-8.49;62.37;101997.47;111375;241;39503;-53
2024/01/08 11:23:39;;;;;;;20.80;10.60;;;;;;;-8.55;62.39;101993.92;111264;241;40506;-53
2024/01/08 11:26:20;;;;;;;19.70;10.50;;;;;;;-8.55;62.68;101992.16;111261;241;39487;-57
2024/01/08 11:29:08;;;;;;;19.30;10.50;;;;;;;-8.50;62.36;101990.67;111273;241;40040;-58
2024/01/08 11:32:43;;;;;;;17.50;10.30;;;;;;;-8.58;62.56;101988.75;111251;241;38871;-53
2024/01/08 11:35:26;;;;;;;20.60;10.00;;;;;;;-8.56;62.96;101990.27;111071;241;39876;-57
2024/01/08 11:38:24;;;;;;;25.70;12.20;;;;;;;-8.45;62.96;101991.96;111219;241;39217;-57
2024/01/08 11:40:59;;;;;;;23.50;12.30;;;;;;;-8.41;62.93;101995.39;111268;241;39891;-57
2024/01/08 11:43:37;;;;;;;26.70;12.50;;;;;;;-8.41;62.75;101985.59;111289;241;40836;-58
2024/01/08 11:46:17;;;;;;;20.90;9.90;;;;;;;-8.45;62.73;101984.98;111272;241;39854;-55
2024/01/08 11:48:58;;;;;;;22.20;11.30;;;;;;;-8.45;62.91;101987.27;111247;241;39798;-54
2024/01/08 11:51:35;;;;;;;18.10;10.00;;;;;;;-8.43;63.19;101989.48;111269;241;39863;-53
2024/01/08 11:54:15;;;;;;;25.20;11.70;;;;;;;-8.32;63.11;101992.95;111293;241;39459;-53
2024/01/08 11:56:54;;;;;;;20.90;10.10;;;;;;;-8.27;63.04;101992.46;111332;241;39297;-54
2024/01/08 11:59:39;;;;;;;18.60;9.60;;;;;;;-8.32;63.25;101992.56;111288;241;39974;-59